Time;durP1;ratioP1;P1;durP2;ratioP2;P2;SDS_P1;SDS_P2;PMS_P1;PMS_P2;Temp;Humidity;BMP_temperature;BMP_pressure;BME280_temperature;BME280_humidity;BME280_pressure;Samples;Min_cycle;Max_cycle;Signal;HPM_P1;HPM_P2
2023/04/25 00:00:22;;;;;;;10.23;4.70;;;;;;;;;;5056774;28;20247;-83
2023/04/25 00:02:48;;;;;;;11.05;5.05;;;;;;;;;;5056907;28;20208;-82
2023/04/25 00:05:15;;;;;;;13.63;5.70;;;;;;;;;;5041552;28;20220;-85
2023/04/25 00:07:42;;;;;;;17.23;7.13;;;;;;;;;;5077368;28;20173;-85
2023/04/25 00:10:09;;;;;;;10.70;5.60;;;;;;;;;;5077903;28;20657;-84
2023/04/25 00:12:35;;;;;;;12.02;5.63;;;;;;;;;;5059298;28;20183;-84
2023/04/25 00:15:02;;;;;;;13.50;6.97;;;;;;;;;;5059415;28;20177;-84
2023/04/25 00:17:28;;;;;;;12.68;5.63;;;;;;;;;;5059243;28;20180;-84
2023/04/25 00:19:54;;;;;;;9.95;5.53;;;;;;;;;;5077515;28;20259;-84
2023/04/25 00:22:20;;;;;;;8.15;6.07;;;;;;;;;;5076752;28;20229;-84
2023/04/25 00:24:46;;;;;;;9.15;5.18;;;;;;;;;;5059708;28;20208;-84
2023/04/25 00:27:12;;;;;;;13.07;6.97;;;;;;;;;;5059357;28;20511;-85
2023/04/25 00:29:38;;;;;;;8.63;4.43;;;;;;;;;;5043082;28;20429;-84
2023/04/25 00:32:04;;;;;;;12.38;5.75;;;;;;;;;;5042878;28;20188;-84
2023/04/25 00:34:30;;;;;;;13.88;6.13;;;;;;;;;;5060498;28;20204;-84
2023/04/25 00:36:56;;;;;;;12.20;6.40;;;;;;;;;;5060967;28;20187;-84
2023/04/25 00:39:23;;;;;;;11.88;4.82;;;;;;;;;;5061709;28;20649;-85
2023/04/25 00:41:52;;;;;;;13.82;5.63;;;;;;;;;;5044353;28;20224;-84
2023/04/25 00:44:19;;;;;;;10.40;5.20;;;;;;;;;;5058918;28;20198;-84
2023/04/25 00:46:46;;;;;;;15.15;6.53;;;;;;;;;;5042793;28;20184;-84
2023/04/25 00:49:15;;;;;;;13.60;6.25;;;;;;;;;;5076572;28;20204;-85
2023/04/25 00:51:41;;;;;;;10.50;6.38;;;;;;;;;;5042964;28;20186;-85
2023/04/25 00:54:07;;;;;;;11.85;6.40;;;;;;;;;;5076348;28;20185;-84
2023/04/25 00:56:33;;;;;;;12.20;5.65;;;;;;;;;;5041731;28;20199;-84
2023/04/25 00:58:59;;;;;;;14.23;5.85;;;;;;;;;;5058625;28;20305;-85
2023/04/25 01:01:25;;;;;;;15.63;5.72;;;;;;;;;;5041793;28;20531;-85
2023/04/25 01:03:53;;;;;;;12.00;6.18;;;;;;;;;;5076896;28;20319;-84
2023/04/25 01:06:20;;;;;;;17.77;6.68;;;;;;;;;;5076157;28;20170;-84
2023/04/25 01:08:46;;;;;;;13.68;6.25;;;;;;;;;;5058292;28;20210;-84
2023/04/25 01:11:12;;;;;;;11.00;6.20;;;;;;;;;;5059279;28;20522;-84
2023/04/25 01:13:38;;;;;;;12.48;5.45;;;;;;;;;;5057954;28;20203;-85
2023/04/25 01:16:05;;;;;;;20.92;7.45;;;;;;;;;;5056965;28;20177;-84
2023/04/25 01:18:31;;;;;;;19.88;7.15;;;;;;;;;;5076004;28;20185;-84
2023/04/25 01:20:59;;;;;;;15.70;6.57;;;;;;;;;;5041494;28;20275;-85
2023/04/25 01:23:25;;;;;;;13.18;5.60;;;;;;;;;;5057739;28;20289;-84
2023/04/25 01:25:51;;;;;;;14.98;5.18;;;;;;;;;;5075987;28;20173;-84
2023/04/25 01:28:17;;;;;;;11.48;5.95;;;;;;;;;;5075408;28;20169;-84
2023/04/25 01:30:43;;;;;;;19.25;6.30;;;;;;;;;;5041474;28;20183;-84
2023/04/25 01:33:10;;;;;;;14.05;5.65;;;;;;;;;;5076201;28;20221;-84
2023/04/25 01:35:36;;;;;;;20.10;6.38;;;;;;;;;;5057820;28;20173;-84
2023/04/25 01:38:02;;;;;;;15.00;6.05;;;;;;;;;;5076093;28;20177;-84
2023/04/25 01:40:28;;;;;;;17.52;6.30;;;;;;;;;;5041561;28;20195;-83
2023/04/25 01:42:55;;;;;;;11.27;6.10;;;;;;;;;;5076189;28;20192;-84
2023/04/25 01:45:21;;;;;;;23.05;8.48;;;;;;;;;;5075660;28;20171;-83
2023/04/25 01:47:49;;;;;;;16.50;6.75;;;;;;;;;;5075818;28;20187;-84
2023/04/25 01:50:16;;;;;;;16.60;6.72;;;;;;;;;;5047835;28;20269;-84
2023/04/25 01:52:42;;;;;;;22.65;6.32;;;;;;;;;;5055824;28;20174;-84
2023/04/25 01:55:08;;;;;;;17.42;8.35;;;;;;;;;;5038061;28;20184;-84
2023/04/25 01:57:35;;;;;;;19.80;7.10;;;;;;;;;;5038288;28;20228;-84
2023/04/25 02:00:04;;;;;;;13.82;7.15;;;;;;;;;;5038556;28;20628;-84
2023/04/25 02:02:30;;;;;;;28.02;6.88;;;;;;;;;;5055405;28;20211;-83
2023/04/25 02:04:56;;;;;;;18.25;8.98;;;;;;;;;;5037822;28;20184;-83
2023/04/25 02:07:22;;;;;;;22.92;9.55;;;;;;;;;;5055270;28;20176;-84
2023/04/25 02:09:48;;;;;;;19.35;6.95;;;;;;;;;;5055197;28;20178;-84
2023/04/25 02:12:14;;;;;;;16.15;8.05;;;;;;;;;;5021043;28;20543;-83
2023/04/25 02:14:40;;;;;;;20.55;9.23;;;;;;;;;;5021296;28;20182;-84
2023/04/25 02:17:06;;;;;;;15.50;6.70;;;;;;;;;;5037230;28;20210;-84
2023/04/25 02:19:32;;;;;;;13.93;6.85;;;;;;;;;;5054596;28;20540;-84
2023/04/25 02:21:59;;;;;;;17.25;7.30;;;;;;;;;;5036882;28;20279;-84
2023/04/25 02:24:25;;;;;;;14.88;6.70;;;;;;;;;;5020515;28;20236;-84
2023/04/25 02:26:52;;;;;;;16.30;6.97;;;;;;;;;;5037058;28;20177;-84
2023/04/25 02:29:18;;;;;;;21.80;7.43;;;;;;;;;;5021703;28;20184;-85
2023/04/25 02:31:44;;;;;;;23.52;6.97;;;;;;;;;;5037193;28;20178;-84
2023/04/25 02:34:10;;;;;;;17.75;6.75;;;;;;;;;;5037256;28;20175;-84
2023/04/25 02:36:36;;;;;;;13.30;6.47;;;;;;;;;;5037134;28;20177;-84
2023/04/25 02:39:02;;;;;;;19.40;7.03;;;;;;;;;;5020218;28;20186;-84
2023/04/25 02:41:29;;;;;;;18.38;6.78;;;;;;;;;;5036497;28;20243;-84
2023/04/25 02:43:55;;;;;;;10.93;6.40;;;;;;;;;;5037572;28;20223;-84
2023/04/25 02:46:21;;;;;;;17.10;5.60;;;;;;;;;;5054480;28;20177;-84
2023/04/25 02:48:47;;;;;;;13.20;6.10;;;;;;;;;;5037128;28;20369;-84
2023/04/25 02:51:13;;;;;;;15.30;6.60;;;;;;;;;;5055135;28;20288;-84
2023/04/25 02:53:39;;;;;;;10.13;5.78;;;;;;;;;;5040222;28;20187;-84
2023/04/25 02:56:05;;;;;;;13.77;6.28;;;;;;;;;;5056406;28;20274;-85
2023/04/25 02:58:31;;;;;;;15.60;5.90;;;;;;;;;;5074217;28;20210;-85
2023/04/25 03:00:58;;;;;;;15.40;7.97;;;;;;;;;;5056625;28;20541;-84
2023/04/25 03:03:24;;;;;;;13.05;6.07;;;;;;;;;;5073711;28;20730;-85
2023/04/25 03:05:50;;;;;;;19.85;7.82;;;;;;;;;;5057059;28;20276;-84
2023/04/25 03:08:17;;;;;;;25.00;7.07;;;;;;;;;;5074272;28;20238;-84
2023/04/25 03:10:43;;;;;;;18.10;7.10;;;;;;;;;;5074025;28;20260;-85
2023/04/25 03:13:09;;;;;;;15.85;6.75;;;;;;;;;;5040413;28;20648;-85
2023/04/25 03:15:35;;;;;;;24.05;7.65;;;;;;;;;;5039772;28;20185;-85
2023/04/25 03:18:01;;;;;;;16.33;7.00;;;;;;;;;;5056469;28;20511;-85
2023/04/25 03:20:27;;;;;;;14.70;6.55;;;;;;;;;;5074370;28;20482;-84
2023/04/25 03:22:53;;;;;;;20.02;7.28;;;;;;;;;;5040157;28;20620;-84
2023/04/25 03:25:20;;;;;;;16.80;7.15;;;;;;;;;;5074304;28;20179;-85
2023/04/25 03:27:46;;;;;;;19.25;8.57;;;;;;;;;;5056474;28;20649;-84
2023/04/25 03:30:12;;;;;;;17.15;6.78;;;;;;;;;;5056466;28;20200;-84
2023/04/25 03:32:38;;;;;;;14.93;6.10;;;;;;;;;;5073847;28;20188;-84
2023/04/25 03:35:05;;;;;;;21.85;7.72;;;;;;;;;;5039831;28;20627;-84
2023/04/25 03:37:31;;;;;;;19.08;7.75;;;;;;;;;;5056031;28;20169;-84
2023/04/25 03:39:57;;;;;;;14.68;7.68;;;;;;;;;;5060794;28;20221;-84
2023/04/25 03:42:23;;;;;;;13.07;7.80;;;;;;;;;;5043730;28;20215;-84
2023/04/25 03:44:52;;;;;;;16.92;6.93;;;;;;;;;;5060318;28;20181;-84
2023/04/25 03:47:18;;;;;;;16.20;8.10;;;;;;;;;;5047699;28;20180;-83
2023/04/25 03:49:45;;;;;;;20.65;8.27;;;;;;;;;;5072135;28;20259;-84
2023/04/25 03:52:11;;;;;;;19.55;7.38;;;;;;;;;;5040657;28;20200;-84
2023/04/25 03:54:37;;;;;;;15.32;7.40;;;;;;;;;;5039607;28;20176;-84
2023/04/25 03:57:03;;;;;;;16.38;7.60;;;;;;;;;;5023658;28;20246;-84
2023/04/25 03:59:29;;;;;;;16.88;8.27;;;;;;;;;;5039996;28;20181;-84
2023/04/25 04:01:55;;;;;;;20.20;8.20;;;;;;;;;;5040028;28;20216;-84
2023/04/25 04:04:21;;;;;;;17.92;7.32;;;;;;;;;;5040100;28;20184;-84
2023/04/25 04:06:47;;;;;;;15.85;6.95;;;;;;;;;;5040056;28;20187;-84
2023/04/25 04:09:13;;;;;;;16.52;8.35;;;;;;;;;;5039833;28;20315;-84
2023/04/25 04:11:39;;;;;;;22.15;8.27;;;;;;;;;;5024408;28;20252;-84
2023/04/25 04:14:06;;;;;;;25.38;10.02;;;;;;;;;;5035975;28;20184;-84
2023/04/25 04:16:32;;;;;;;24.52;9.23;;;;;;;;;;5042691;28;20180;-84
2023/04/25 04:18:58;;;;;;;16.95;9.05;;;;;;;;;;5042305;28;20540;-84
2023/04/25 04:21:24;;;;;;;23.77;8.52;;;;;;;;;;5058605;28;20170;-84
2023/04/25 04:23:50;;;;;;;16.15;8.77;;;;;;;;;;5039818;28;20239;-84
2023/04/25 04:26:16;;;;;;;12.10;8.38;;;;;;;;;;5039661;28;20174;-84
2023/04/25 04:28:43;;;;;;;27.10;9.48;;;;;;;;;;5039310;28;20173;-85
2023/04/25 04:31:09;;;;;;;14.75;8.27;;;;;;;;;;5039314;28;20198;-84
2023/04/25 04:33:36;;;;;;;29.38;9.25;;;;;;;;;;5022312;28;20191;-84
2023/04/25 04:36:02;;;;;;;14.10;7.57;;;;;;;;;;5039908;28;20621;-84
2023/04/25 04:38:29;;;;;;;17.95;7.47;;;;;;;;;;5023792;28;20213;-85
2023/04/25 04:40:55;;;;;;;15.27;8.70;;;;;;;;;;5039410;28;20196;-84
2023/04/25 04:43:22;;;;;;;26.13;8.05;;;;;;;;;;5039289;28;20629;-84
2023/04/25 04:45:49;;;;;;;17.88;7.28;;;;;;;;;;5057249;28;20176;-84
2023/04/25 04:48:16;;;;;;;19.00;7.90;;;;;;;;;;5023283;28;20202;-84
2023/04/25 04:50:45;;;;;;;21.42;7.97;;;;;;;;;;5053018;28;20225;-84
2023/04/25 04:53:11;;;;;;;16.73;6.70;;;;;;;;;;5076996;28;20173;-85
2023/04/25 04:55:37;;;;;;;15.10;7.70;;;;;;;;;;5076946;28;20195;-84
2023/04/25 04:58:03;;;;;;;19.27;8.60;;;;;;;;;;5058677;28;20576;-84
2023/04/25 05:00:29;;;;;;;17.08;7.20;;;;;;;;;;5076192;28;20242;-85
2023/04/25 05:02:59;;;;;;;17.90;7.25;;;;;;;;;;5041777;28;20216;-86
2023/04/25 05:05:25;;;;;;;13.93;7.22;;;;;;;;;;5077176;28;20184;-82
2023/04/25 05:07:51;;;;;;;18.42;7.85;;;;;;;;;;5076934;28;20228;-81
2023/04/25 05:10:20;;;;;;;28.60;8.40;;;;;;;;;;5059319;28;20655;-81
2023/04/25 05:12:46;;;;;;;19.80;6.95;;;;;;;;;;5058944;28;20269;-81
2023/04/25 05:15:12;;;;;;;15.52;7.20;;;;;;;;;;5042375;28;20684;-81
2023/04/25 05:17:38;;;;;;;13.30;6.53;;;;;;;;;;5042476;28;20247;-81
2023/04/25 05:20:05;;;;;;;18.00;7.43;;;;;;;;;;5058955;28;20173;-83
2023/04/25 05:22:31;;;;;;;12.43;7.18;;;;;;;;;;5075915;28;20201;-82
2023/04/25 05:24:57;;;;;;;25.35;7.47;;;;;;;;;;5076638;28;20530;-81
2023/04/25 05:27:24;;;;;;;19.50;7.30;;;;;;;;;;5058800;28;20625;-82
2023/04/25 05:29:51;;;;;;;26.67;7.90;;;;;;;;;;5059020;28;20268;-82
2023/04/25 05:32:17;;;;;;;20.73;8.07;;;;;;;;;;5076587;28;20183;-82
2023/04/25 05:34:43;;;;;;;22.48;6.85;;;;;;;;;;5041595;28;20176;-82
2023/04/25 05:37:09;;;;;;;15.98;6.25;;;;;;;;;;5076469;28;20222;-82
2023/04/25 05:39:35;;;;;;;14.80;6.07;;;;;;;;;;5041530;28;20184;-82
2023/04/25 05:42:01;;;;;;;16.65;6.07;;;;;;;;;;5041876;28;20303;-82
2023/04/25 05:44:28;;;;;;;15.32;6.65;;;;;;;;;;5058634;28;20540;-82
2023/04/25 05:46:55;;;;;;;20.17;7.88;;;;;;;;;;5057843;28;20195;-82
2023/04/25 05:49:21;;;;;;;24.35;7.53;;;;;;;;;;5057782;28;20244;-81
2023/04/25 05:51:47;;;;;;;15.93;5.43;;;;;;;;;;5058123;28;20187;-82
2023/04/25 05:54:13;;;;;;;15.75;6.47;;;;;;;;;;5041704;28;20180;-81
2023/04/25 05:56:39;;;;;;;15.97;6.90;;;;;;;;;;5058784;28;20637;-82
2023/04/25 05:59:05;;;;;;;15.40;6.95;;;;;;;;;;5058107;28;20461;-81
2023/04/25 06:01:31;;;;;;;17.95;6.20;;;;;;;;;;5058098;28;20636;-84
2023/04/25 06:03:57;;;;;;;14.37;6.90;;;;;;;;;;5057918;28;20188;-82
2023/04/25 06:06:23;;;;;;;20.77;6.15;;;;;;;;;;5075934;28;20820;-82
2023/04/25 06:08:50;;;;;;;16.33;6.93;;;;;;;;;;5058278;28;20223;-81
2023/04/25 06:11:16;;;;;;;23.55;6.22;;;;;;;;;;5058038;28;20204;-82
2023/04/25 06:13:42;;;;;;;18.58;7.03;;;;;;;;;;5057839;28;20180;-82
2023/04/25 06:16:08;;;;;;;15.82;6.20;;;;;;;;;;5057749;28;20275;-81
2023/04/25 06:18:35;;;;;;;23.00;6.70;;;;;;;;;;5042237;28;20180;-82
2023/04/25 06:21:01;;;;;;;14.60;7.40;;;;;;;;;;5079525;28;20175;-80
2023/04/25 06:23:27;;;;;;;17.85;5.60;;;;;;;;;;5079276;28;20633;-82
2023/04/25 06:25:53;;;;;;;22.60;5.63;;;;;;;;;;5061374;28;20219;-81
2023/04/25 06:28:19;;;;;;;12.87;5.50;;;;;;;;;;5061110;28;20212;-82
2023/04/25 06:30:45;;;;;;;17.85;6.18;;;;;;;;;;5077198;28;20469;-82
2023/04/25 06:33:11;;;;;;;15.50;5.80;;;;;;;;;;5061336;28;20275;-81
2023/04/25 06:35:37;;;;;;;11.37;4.60;;;;;;;;;;5077234;28;20657;-82
2023/04/25 06:38:03;;;;;;;10.97;4.60;;;;;;;;;;5077664;28;20425;-84
2023/04/25 06:40:29;;;;;;;16.08;5.13;;;;;;;;;;5077485;28;20767;-84
2023/04/25 06:42:55;;;;;;;13.48;4.57;;;;;;;;;;5060464;28;20302;-84
2023/04/25 06:45:21;;;;;;;12.00;5.07;;;;;;;;;;5061285;28;20203;-84
2023/04/25 06:47:47;;;;;;;17.33;5.93;;;;;;;;;;5095545;28;20406;-82
2023/04/25 06:50:13;;;;;;;8.83;5.73;;;;;;;;;;5077455;28;20946;-82
2023/04/25 06:52:39;;;;;;;17.87;4.53;;;;;;;;;;5060264;28;20429;-82
2023/04/25 06:55:05;;;;;;;16.92;5.85;;;;;;;;;;5095558;28;20399;-82
2023/04/25 06:57:31;;;;;;;32.63;6.25;;;;;;;;;;5061013;28;20219;-82
2023/04/25 06:59:57;;;;;;;13.80;5.40;;;;;;;;;;5095005;28;20176;-82
2023/04/25 07:02:23;;;;;;;13.63;4.70;;;;;;;;;;5060658;28;20303;-82
2023/04/25 07:04:49;;;;;;;13.20;4.75;;;;;;;;;;5060947;28;20426;-82
2023/04/25 07:07:16;;;;;;;15.80;4.15;;;;;;;;;;5060739;28;20213;-82
2023/04/25 07:09:42;;;;;;;14.45;3.90;;;;;;;;;;5077074;28;20601;-82
2023/04/25 07:12:08;;;;;;;14.30;5.60;;;;;;;;;;5077417;28;20234;-82
2023/04/25 07:14:34;;;;;;;20.53;4.40;;;;;;;;;;5062686;28;20429;-82
2023/04/25 07:17:00;;;;;;;13.15;5.05;;;;;;;;;;5064699;28;20471;-81
2023/04/25 07:19:29;;;;;;;12.75;3.95;;;;;;;;;;5065013;28;20222;-81
2023/04/25 07:21:55;;;;;;;11.90;3.47;;;;;;;;;;5064536;28;20552;-81
2023/04/25 07:24:21;;;;;;;16.77;4.32;;;;;;;;;;5099665;28;20172;-81
2023/04/25 07:26:47;;;;;;;8.95;3.45;;;;;;;;;;5067758;28;20183;-82
2023/04/25 07:29:13;;;;;;;10.83;3.27;;;;;;;;;;5090157;28;20191;-82
2023/04/25 07:31:39;;;;;;;9.07;3.58;;;;;;;;;;5072647;28;20434;-81
2023/04/25 07:34:05;;;;;;;14.88;4.03;;;;;;;;;;5084096;28;20172;-81
2023/04/25 07:36:31;;;;;;;8.80;3.25;;;;;;;;;;5082404;28;20701;-81
2023/04/25 07:38:57;;;;;;;11.60;2.90;;;;;;;;;;5083797;28;20651;-81
2023/04/25 07:41:24;;;;;;;11.10;3.63;;;;;;;;;;5065608;28;20191;-82
2023/04/25 07:43:50;;;;;;;7.47;3.03;;;;;;;;;;5080307;28;20465;-81
2023/04/25 07:46:15;;;;;;;7.43;3.20;;;;;;;;;;5080604;28;20199;-81
2023/04/25 07:48:41;;;;;;;14.80;4.10;;;;;;;;;;5080559;28;20176;-81
2023/04/25 07:51:07;;;;;;;13.00;3.67;;;;;;;;;;5080689;28;20469;-80
2023/04/25 07:53:34;;;;;;;9.53;3.23;;;;;;;;;;5081246;28;20422;-81
2023/04/25 07:56:00;;;;;;;9.52;3.30;;;;;;;;;;5063971;28;20410;-81
2023/04/25 07:58:26;;;;;;;13.40;4.05;;;;;;;;;;5080643;28;20588;-81
2023/04/25 08:00:52;;;;;;;10.90;4.63;;;;;;;;;;5080423;28;20184;-80
2023/04/25 08:03:18;;;;;;;12.70;4.00;;;;;;;;;;5080609;28;20910;-81
2023/04/25 08:05:45;;;;;;;6.40;2.73;;;;;;;;;;5099278;28;20409;-80
2023/04/25 08:08:11;;;;;;;7.85;3.22;;;;;;;;;;5080893;28;20402;-81
2023/04/25 08:10:37;;;;;;;19.57;3.63;;;;;;;;;;5063676;28;20656;-81
2023/04/25 08:13:03;;;;;;;12.20;4.30;;;;;;;;;;5079956;28;20497;-81
2023/04/25 08:15:29;;;;;;;6.10;2.53;;;;;;;;;;5080524;28;20833;-80
2023/04/25 08:17:55;;;;;;;4.25;2.90;;;;;;;;;;5063053;28;20192;-81
2023/04/25 08:20:21;;;;;;;7.80;2.80;;;;;;;;;;5063556;28;20207;-81
2023/04/25 08:22:48;;;;;;;6.38;2.40;;;;;;;;;;5080353;28;20601;-81
2023/04/25 08:25:14;;;;;;;10.90;2.47;;;;;;;;;;5080490;28;20175;-81
2023/04/25 08:27:40;;;;;;;17.00;3.90;;;;;;;;;;5076638;28;20214;-81
2023/04/25 08:30:08;;;;;;;10.27;3.38;;;;;;;;;;5056768;28;20230;-80
2023/04/25 08:32:34;;;;;;;7.28;2.90;;;;;;;;;;5048371;28;20189;-81
2023/04/25 08:35:00;;;;;;;13.82;3.60;;;;;;;;;;5064549;28;20168;-81
2023/04/25 08:37:26;;;;;;;10.10;3.67;;;;;;;;;;5077280;28;20591;-81
2023/04/25 08:39:53;;;;;;;9.98;3.35;;;;;;;;;;5053272;28;20517;-81
2023/04/25 08:42:19;;;;;;;8.55;2.50;;;;;;;;;;5053581;28;20204;-81
2023/04/25 08:44:46;;;;;;;6.13;1.92;;;;;;;;;;5058874;28;20177;-81
2023/04/25 08:47:12;;;;;;;8.20;3.45;;;;;;;;;;5059229;28;20267;-81
2023/04/25 08:49:40;;;;;;;13.30;3.33;;;;;;;;;;5058538;28;20262;-81
2023/04/25 08:52:10;;;;;;;11.13;3.08;;;;;;;;;;5080182;28;20414;-81
2023/04/25 08:54:37;;;;;;;9.02;2.95;;;;;;;;;;5080427;28;20169;-81
2023/04/25 08:57:03;;;;;;;9.10;2.50;;;;;;;;;;5088880;28;20215;-81
2023/04/25 08:59:31;;;;;;;7.75;2.13;;;;;;;;;;5078643;28;20169;-81
2023/04/25 09:01:57;;;;;;;5.55;1.83;;;;;;;;;;5060344;28;20208;-80
2023/04/25 09:04:23;;;;;;;6.63;2.65;;;;;;;;;;5060170;28;20184;-80
2023/04/25 09:06:49;;;;;;;6.37;2.50;;;;;;;;;;5060523;28;20621;-81
2023/04/25 09:09:15;;;;;;;8.57;2.25;;;;;;;;;;5077543;28;20399;-81
2023/04/25 09:11:41;;;;;;;10.73;1.92;;;;;;;;;;5059508;28;20185;-81
2023/04/25 09:14:11;;;;;;;5.45;2.17;;;;;;;;;;5059300;28;20176;-81
2023/04/25 09:16:57;;;;;;;8.30;2.10;;;;;;;;;;5076504;28;20176;-81
2023/04/25 09:19:24;;;;;;;9.73;2.53;;;;;;;;;;5059553;28;20541;-81
2023/04/25 09:21:51;;;;;;;10.13;2.53;;;;;;;;;;5076422;28;20180;-81
2023/04/25 09:24:20;;;;;;;5.30;2.25;;;;;;;;;;5075776;28;20533;-82
2023/04/25 09:26:45;;;;;;;7.57;2.40;;;;;;;;;;5077029;28;20172;-81
2023/04/25 09:29:12;;;;;;;9.10;2.33;;;;;;;;;;5058480;28;20263;-81
2023/04/25 09:31:38;;;;;;;4.65;1.80;;;;;;;;;;5076527;28;20450;-81
2023/04/25 09:34:03;;;;;;;10.07;2.70;;;;;;;;;;5058290;28;20185;-81
2023/04/25 09:36:30;;;;;;;17.10;3.37;;;;;;;;;;5058505;28;20512;-81
2023/04/25 09:38:56;;;;;;;8.52;2.53;;;;;;;;;;5057040;28;20560;-81
2023/04/25 09:41:25;;;;;;;6.10;2.50;;;;;;;;;;5066995;28;20214;-81
2023/04/25 09:43:51;;;;;;;11.05;2.67;;;;;;;;;;5095915;28;20538;-82
2023/04/25 09:46:20;;;;;;;6.72;2.47;;;;;;;;;;5077295;28;20191;-82
2023/04/25 09:48:53;;;;;;;10.35;2.65;;;;;;;;;;5077856;28;20664;-82
2023/04/25 09:51:19;;;;;;;7.90;2.35;;;;;;;;;;5061828;28;20255;-81
2023/04/25 09:53:46;;;;;;;8.73;3.20;;;;;;;;;;5078480;28;20206;-82
2023/04/25 09:56:13;;;;;;;7.93;3.00;;;;;;;;;;5078401;28;20420;-80
2023/04/25 09:58:40;;;;;;;6.40;2.58;;;;;;;;;;5070016;28;20196;-81
2023/04/25 10:01:10;;;;;;;7.82;2.17;;;;;;;;;;5075858;28;20180;-81
2023/04/25 10:03:40;;;;;;;5.65;2.45;;;;;;;;;;5066665;28;20573;-81
2023/04/25 10:06:12;;;;;;;7.53;2.90;;;;;;;;;;5063363;28;20648;-81
2023/04/25 10:08:39;;;;;;;6.63;2.63;;;;;;;;;;5062867;28;20180;-81
2023/04/25 10:11:07;;;;;;;9.32;2.38;;;;;;;;;;5075498;28;20180;-81
2023/04/25 10:13:34;;;;;;;10.73;5.90;;;;;;;;;;5076101;28;20553;-81
2023/04/25 10:16:01;;;;;;;6.13;2.25;;;;;;;;;;5041781;28;20188;-80
2023/04/25 10:18:28;;;;;;;10.23;2.65;;;;;;;;;;5075535;28;20250;-81
2023/04/25 10:20:58;;;;;;;10.85;3.55;;;;;;;;;;5075787;28;20169;-81
2023/04/25 10:23:24;;;;;;;6.93;2.80;;;;;;;;;;5075547;28;20535;-81
2023/04/25 10:25:52;;;;;;;6.67;2.50;;;;;;;;;;5040708;28;20829;-81
2023/04/25 10:28:18;;;;;;;7.20;2.30;;;;;;;;;;5075667;28;20396;-81
2023/04/25 10:31:03;;;;;;;6.07;1.93;;;;;;;;;;5058693;28;20498;-81
2023/04/25 10:33:30;;;;;;;9.40;2.20;;;;;;;;;;5057734;28;20826;-82
2023/04/25 10:35:58;;;;;;;7.43;2.40;;;;;;;;;;5076772;28;20469;-82
2023/04/25 10:38:26;;;;;;;5.30;1.97;;;;;;;;;;5075370;28;20402;-82
2023/04/25 10:41:08;;;;;;;7.63;2.43;;;;;;;;;;5074820;28;20406;-81
2023/04/25 10:43:38;;;;;;;8.03;2.30;;;;;;;;;;5057235;28;20562;-81
2023/04/25 10:46:23;;;;;;;7.90;1.97;;;;;;;;;;5075074;28;20465;-82
2023/04/25 10:48:53;;;;;;;7.60;2.37;;;;;;;;;;5056770;28;20411;-83
2023/04/25 10:51:26;;;;;;;4.80;2.40;;;;;;;;;;5057050;28;20463;-82
2023/04/25 10:53:55;;;;;;;5.75;2.33;;;;;;;;;;5057072;28;20419;-82
2023/04/25 10:56:22;;;;;;;4.47;2.35;;;;;;;;;;5057618;28;20223;-81
2023/04/25 10:58:48;;;;;;;4.65;2.45;;;;;;;;;;5040592;28;20204;-84
2023/04/25 11:01:15;;;;;;;5.88;2.15;;;;;;;;;;5057904;28;20208;-82
2023/04/25 11:03:42;;;;;;;3.83;2.08;;;;;;;;;;5057467;28;20224;-81
2023/04/25 11:06:15;;;;;;;4.75;1.60;;;;;;;;;;5057221;28;20187;-81
2023/04/25 11:08:48;;;;;;;7.22;2.55;;;;;;;;;;5057430;28;20184;-81
2023/04/25 11:11:15;;;;;;;6.28;2.38;;;;;;;;;;5056966;28;20172;-82
2023/04/25 11:13:41;;;;;;;7.72;2.10;;;;;;;;;;5074720;28;20177;-82
2023/04/25 11:16:10;;;;;;;5.18;2.58;;;;;;;;;;5059271;28;20181;-82
2023/04/25 11:18:38;;;;;;;8.63;2.20;;;;;;;;;;5076885;28;20181;-82
2023/04/25 11:21:04;;;;;;;5.40;2.08;;;;;;;;;;5058539;28;20197;-82
2023/04/25 11:23:30;;;;;;;5.70;2.40;;;;;;;;;;5074765;28;20193;-83
2023/04/25 11:25:57;;;;;;;6.63;2.20;;;;;;;;;;5056320;28;20415;-82
2023/04/25 11:28:23;;;;;;;9.73;2.40;;;;;;;;;;5074130;28;20403;-82
2023/04/25 11:30:52;;;;;;;7.13;2.30;;;;;;;;;;5056747;28;20914;-82
2023/04/25 11:33:23;;;;;;;4.23;1.90;;;;;;;;;;5074306;28;20431;-82
2023/04/25 11:35:49;;;;;;;10.40;2.47;;;;;;;;;;5056942;28;20460;-82
2023/04/25 11:38:15;;;;;;;9.37;2.20;;;;;;;;;;5056188;28;20805;-82
2023/04/25 11:40:41;;;;;;;8.10;2.03;;;;;;;;;;5074087;28;20414;-82
2023/04/25 11:43:07;;;;;;;9.10;2.47;;;;;;;;;;5056388;28;20463;-82
2023/04/25 11:45:33;;;;;;;3.57;1.80;;;;;;;;;;5056577;28;20403;-82
2023/04/25 11:48:00;;;;;;;5.90;1.90;;;;;;;;;;5039797;28;20934;-82
2023/04/25 11:50:28;;;;;;;7.47;2.30;;;;;;;;;;5039717;28;20901;-82
2023/04/25 11:52:56;;;;;;;5.80;2.03;;;;;;;;;;5074286;28;20816;-83
2023/04/25 11:55:22;;;;;;;10.30;2.50;;;;;;;;;;5074339;28;20771;-82
2023/04/25 11:57:50;;;;;;;5.70;2.00;;;;;;;;;;5040221;28;20498;-82
2023/04/25 12:00:17;;;;;;;5.00;2.20;;;;;;;;;;5056711;28;20430;-82
2023/04/25 12:02:43;;;;;;;5.17;1.50;;;;;;;;;;5078072;28;20856;-82
2023/04/25 12:05:10;;;;;;;5.30;2.03;;;;;;;;;;5059432;28;20411;-82
2023/04/25 12:07:37;;;;;;;6.70;1.90;;;;;;;;;;5043993;28;20405;-81
2023/04/25 12:10:08;;;;;;;7.37;1.63;;;;;;;;;;5077734;28;20418;-82
2023/04/25 12:12:35;;;;;;;4.93;2.00;;;;;;;;;;5060449;28;20421;-82
2023/04/25 12:15:20;;;;;;;5.23;1.80;;;;;;;;;;5043246;28;20411;-82
2023/04/25 12:17:47;;;;;;;6.77;1.60;;;;;;;;;;5059453;28;20415;-81
2023/04/25 12:20:14;;;;;;;7.93;2.13;;;;;;;;;;5059419;28;20487;-82
2023/04/25 12:22:45;;;;;;;10.10;2.70;;;;;;;;;;5059652;28;20444;-82
2023/04/25 12:25:12;;;;;;;7.07;1.80;;;;;;;;;;5059055;28;20445;-83
2023/04/25 12:27:41;;;;;;;4.17;1.80;;;;;;;;;;5059660;28;20393;-81
2023/04/25 12:30:08;;;;;;;7.73;2.43;;;;;;;;;;5059331;28;20426;-81
2023/04/25 12:32:34;;;;;;;6.10;2.40;;;;;;;;;;5059657;28;20389;-82
2023/04/25 12:35:00;;;;;;;5.40;2.00;;;;;;;;;;5076883;28;20426;-82
2023/04/25 12:37:26;;;;;;;6.60;2.73;;;;;;;;;;5043075;28;20411;-81
2023/04/25 12:39:52;;;;;;;4.20;1.83;;;;;;;;;;5059350;28;20403;-81
2023/04/25 12:42:18;;;;;;;3.27;2.03;;;;;;;;;;5076874;28;20813;-80
2023/04/25 12:44:44;;;;;;;7.73;2.40;;;;;;;;;;5042634;28;20425;-80
2023/04/25 12:47:10;;;;;;;6.87;2.30;;;;;;;;;;5042602;28;20426;-81
2023/04/25 12:49:36;;;;;;;9.80;2.40;;;;;;;;;;5058744;28;20447;-80
2023/04/25 12:52:02;;;;;;;9.93;2.87;;;;;;;;;;5042435;28;20418;-81
2023/04/25 12:54:28;;;;;;;5.57;2.20;;;;;;;;;;5042539;28;20403;-81
2023/04/25 12:56:54;;;;;;;8.70;2.40;;;;;;;;;;5059154;28;20423;-81
2023/04/25 12:59:21;;;;;;;7.60;2.53;;;;;;;;;;5058760;28;20411;-81
2023/04/25 13:01:47;;;;;;;6.35;2.28;;;;;;;;;;5076402;28;20192;-82
2023/04/25 13:04:13;;;;;;;5.72;2.20;;;;;;;;;;5058366;28;20185;-81
2023/04/25 13:06:39;;;;;;;4.80;2.03;;;;;;;;;;5058969;28;20184;-81
2023/04/25 13:09:06;;;;;;;6.15;2.08;;;;;;;;;;5058712;28;20988;-81
2023/04/25 13:11:32;;;;;;;7.30;2.05;;;;;;;;;;5076666;28;20169;-81
2023/04/25 13:13:58;;;;;;;5.07;2.30;;;;;;;;;;5041782;28;20191;-81
2023/04/25 13:16:24;;;;;;;3.05;1.55;;;;;;;;;;5076173;28;20782;-81
2023/04/25 13:18:50;;;;;;;10.00;2.20;;;;;;;;;;5076512;28;20608;-81
2023/04/25 13:21:16;;;;;;;6.07;2.73;;;;;;;;;;5041863;28;20189;-81
2023/04/25 13:23:44;;;;;;;3.65;1.70;;;;;;;;;;5058540;28;20486;-81
2023/04/25 13:26:10;;;;;;;6.60;2.40;;;;;;;;;;5076245;28;20177;-81
2023/04/25 13:28:36;;;;;;;3.47;1.80;;;;;;;;;;5058421;28;20184;-81
2023/04/25 13:31:02;;;;;;;6.20;2.00;;;;;;;;;;5041863;28;20181;-81
2023/04/25 13:33:28;;;;;;;5.80;2.13;;;;;;;;;;5058583;28;20422;-81
2023/04/25 13:35:56;;;;;;;3.70;2.23;;;;;;;;;;5058292;28;20395;-80
2023/04/25 13:38:22;;;;;;;4.30;1.50;;;;;;;;;;5042558;28;20927;-81
2023/04/25 13:40:48;;;;;;;2.27;1.50;;;;;;;;;;5060040;28;20446;-81
2023/04/25 13:43:14;;;;;;;6.67;1.73;;;;;;;;;;5058785;28;20837;-81
2023/04/25 13:45:40;;;;;;;3.17;1.50;;;;;;;;;;5057896;28;20403;-81
2023/04/25 13:48:06;;;;;;;2.90;1.50;;;;;;;;;;5041014;28;20498;-81
2023/04/25 13:50:32;;;;;;;5.37;1.77;;;;;;;;;;5075445;28;20483;-81
2023/04/25 13:52:58;;;;;;;6.13;1.53;;;;;;;;;;5075553;28;20898;-86
2023/04/25 13:55:25;;;;;;;5.33;1.30;;;;;;;;;;5041340;28;20415;-81
2023/04/25 13:57:51;;;;;;;3.30;1.40;;;;;;;;;;5075356;28;20407;-81
2023/04/25 14:00:17;;;;;;;3.90;1.30;;;;;;;;;;5057431;28;20430;-81
2023/04/25 14:02:43;;;;;;;3.87;1.60;;;;;;;;;;5057911;28;20474;-81
2023/04/25 14:05:09;;;;;;;2.73;1.43;;;;;;;;;;5040568;28;20775;-81
2023/04/25 14:07:35;;;;;;;8.50;1.43;;;;;;;;;;5058001;28;20510;-81
2023/04/25 14:10:02;;;;;;;3.83;1.87;;;;;;;;;;5059021;28;20407;-82
2023/04/25 14:12:28;;;;;;;3.20;1.30;;;;;;;;;;5057729;28;20450;-81
2023/04/25 14:14:54;;;;;;;2.17;1.30;;;;;;;;;;5040829;28;20426;-81
2023/04/25 14:17:20;;;;;;;2.60;1.53;;;;;;;;;;5040622;28;20993;-81
2023/04/25 14:19:47;;;;;;;3.83;1.27;;;;;;;;;;5040752;28;20420;-81
2023/04/25 14:22:14;;;;;;;1.70;1.10;;;;;;;;;;5075215;28;20512;-81
2023/04/25 14:24:40;;;;;;;3.20;1.37;;;;;;;;;;5075436;28;20448;-81
2023/04/25 14:27:06;;;;;;;7.33;2.20;;;;;;;;;;5041210;28;20468;-81
2023/04/25 14:29:32;;;;;;;2.47;1.50;;;;;;;;;;5058187;28;20457;-80
2023/04/25 14:31:59;;;;;;;2.50;1.33;;;;;;;;;;5058515;28;20407;-81